sensor_id;sensor_type;location;lat;lon;timestamp;pressure;altitude;pressure_sealevel;temperature;humidity
818;BME280;391;51.052;6.954;2023-07-24T00:00:19;99936.09;;;18.51;100.00
818;BME280;391;51.052;6.954;2023-07-24T00:02:22;99949.00;;;18.67;100.00
818;BME280;391;51.052;6.954;2023-07-24T00:04:25;99939.56;;;18.53;100.00
818;BME280;391;51.052;6.954;2023-07-24T00:06:28;99936.94;;;18.51;100.00
818;BME280;391;51.052;6.954;2023-07-24T00:08:32;99937.84;;;18.48;100.00
818;BME280;391;51.052;6.954;2023-07-24T00:10:35;99936.13;;;18.44;100.00
818;BME280;391;51.052;6.954;2023-07-24T00:12:40;99930.84;;;18.44;100.00
818;BME280;391;51.052;6.954;2023-07-24T00:14:44;99926.53;;;18.40;100.00
818;BME280;391;51.052;6.954;2023-07-24T00:16:48;99929.13;;;18.42;100.00
818;BME280;391;51.052;6.954;2023-07-24T00:18:52;99929.19;;;18.39;100.00
818;BME280;391;51.052;6.954;2023-07-24T00:20:55;99930.75;;;18.54;100.00
818;BME280;391;51.052;6.954;2023-07-24T00:22:59;99916.97;;;18.33;100.00
818;BME280;391;51.052;6.954;2023-07-24T00:25:03;99929.28;;;18.33;100.00
818;BME280;391;51.052;6.954;2023-07-24T00:27:07;99930.28;;;18.26;100.00
818;BME280;391;51.052;6.954;2023-07-24T00:29:12;99928.69;;;18.14;100.00
818;BME280;391;51.052;6.954;2023-07-24T00:31:17;99921.53;;;18.24;100.00
818;BME280;391;51.052;6.954;2023-07-24T00:33:21;99920.00;;;18.09;100.00
818;BME280;391;51.052;6.954;2023-07-24T00:35:25;99923.53;;;18.07;100.00
818;BME280;391;51.052;6.954;2023-07-24T00:37:28;99915.47;;;18.17;100.00
818;BME280;391;51.052;6.954;2023-07-24T00:39:32;99921.41;;;18.30;100.00
818;BME280;391;51.052;6.954;2023-07-24T00:41:37;99925.66;;;18.40;100.00
818;BME280;391;51.052;6.954;2023-07-24T00:43:41;99918.88;;;18.22;100.00
818;BME280;391;51.052;6.954;2023-07-24T00:45:46;99917.03;;;18.30;100.00
818;BME280;391;51.052;6.954;2023-07-24T00:47:51;99916.97;;;18.33;100.00
818;BME280;391;51.052;6.954;2023-07-24T00:49:56;99907.28;;;18.34;100.00
818;BME280;391;51.052;6.954;2023-07-24T00:52:00;99909.78;;;18.43;100.00
818;BME280;391;51.052;6.954;2023-07-24T00:54:04;99906.63;;;18.21;100.00
818;BME280;391;51.052;6.954;2023-07-24T00:56:09;99898.66;;;18.23;100.00
818;BME280;391;51.052;6.954;2023-07-24T00:58:16;99907.19;;;18.38;100.00
818;BME280;391;51.052;6.954;2023-07-24T01:00:20;99898.50;;;18.32;100.00
818;BME280;391;51.052;6.954;2023-07-24T01:02:25;99895.88;;;18.32;100.00
818;BME280;391;51.052;6.954;2023-07-24T01:04:30;99885.41;;;18.26;100.00
818;BME280;391;51.052;6.954;2023-07-24T01:06:33;99893.94;;;18.43;100.00
818;BME280;391;51.052;6.954;2023-07-24T01:08:37;99892.50;;;18.24;100.00
818;BME280;391;51.052;6.954;2023-07-24T01:10:42;99880.22;;;18.20;100.00
818;BME280;391;51.052;6.954;2023-07-24T01:12:51;99883.75;;;18.19;100.00
818;BME280;391;51.052;6.954;2023-07-24T01:15:05;99876.03;;;18.07;100.00
818;BME280;391;51.052;6.954;2023-07-24T01:17:13;99863.09;;;17.93;100.00
818;BME280;391;51.052;6.954;2023-07-24T01:19:37;99863.94;;;17.93;100.00
818;BME280;391;51.052;6.954;2023-07-24T01:21:47;99851.75;;;17.86;100.00
818;BME280;391;51.052;6.954;2023-07-24T01:23:58;99860.59;;;17.82;100.00
818;BME280;391;51.052;6.954;2023-07-24T01:26:03;99858.78;;;17.84;100.00
818;BME280;391;51.052;6.954;2023-07-24T01:28:07;99860.44;;;17.91;100.00
818;BME280;391;51.052;6.954;2023-07-24T01:30:12;99848.94;;;17.97;100.00
818;BME280;391;51.052;6.954;2023-07-24T01:32:16;99836.75;;;17.88;100.00
818;BME280;391;51.052;6.954;2023-07-24T01:34:20;99835.06;;;17.84;100.00
818;BME280;391;51.052;6.954;2023-07-24T01:36:24;99850.84;;;17.87;100.00
818;BME280;391;51.052;6.954;2023-07-24T01:38:28;99837.78;;;17.80;100.00
818;BME280;391;51.052;6.954;2023-07-24T01:40:34;99844.91;;;17.72;100.00
818;BME280;391;51.052;6.954;2023-07-24T01:42:39;99831.69;;;17.76;100.00
818;BME280;391;51.052;6.954;2023-07-24T01:44:43;99830.91;;;17.68;100.00
818;BME280;391;51.052;6.954;2023-07-24T01:46:47;99837.16;;;17.63;100.00
818;BME280;391;51.052;6.954;2023-07-24T01:48:50;99837.19;;;17.58;100.00
818;BME280;391;51.052;6.954;2023-07-24T01:50:56;99829.34;;;17.55;100.00
818;BME280;391;51.052;6.954;2023-07-24T01:52:59;99834.59;;;17.54;100.00
818;BME280;391;51.052;6.954;2023-07-24T01:55:03;99833.72;;;17.55;100.00
818;BME280;391;51.052;6.954;2023-07-24T01:57:07;99815.34;;;17.48;100.00
818;BME280;391;51.052;6.954;2023-07-24T01:59:12;99806.44;;;17.59;100.00
818;BME280;391;51.052;6.954;2023-07-24T02:01:14;99680.16;;;16.82;100.00
818;BME280;391;51.052;6.954;2023-07-24T02:03:18;99808.34;;;17.48;100.00
818;BME280;391;51.052;6.954;2023-07-24T02:05:22;99824.16;;;17.46;100.00
818;BME280;391;51.052;6.954;2023-07-24T02:07:26;99825.88;;;17.50;100.00
818;BME280;391;51.052;6.954;2023-07-24T02:09:30;99823.09;;;17.62;100.00
818;BME280;391;51.052;6.954;2023-07-24T02:11:34;99821.44;;;17.55;100.00
818;BME280;391;51.052;6.954;2023-07-24T02:13:37;99818.75;;;17.58;100.00
818;BME280;391;51.052;6.954;2023-07-24T02:15:42;99816.97;;;17.59;100.00
818;BME280;391;51.052;6.954;2023-07-24T02:17:46;99812.66;;;17.53;100.00
818;BME280;391;51.052;6.954;2023-07-24T02:19:51;99810.00;;;17.56;100.00
818;BME280;391;51.052;6.954;2023-07-24T02:21:56;99807.28;;;17.62;100.00
818;BME280;391;51.052;6.954;2023-07-24T02:24:00;99798.19;;;17.83;100.00
818;BME280;391;51.052;6.954;2023-07-24T02:26:05;99796.22;;;17.95;100.00
818;BME280;391;51.052;6.954;2023-07-24T02:28:09;99782.00;;;18.06;100.00
818;BME280;391;51.052;6.954;2023-07-24T02:30:13;99793.25;;;18.14;100.00
818;BME280;391;51.052;6.954;2023-07-24T02:32:18;99791.41;;;18.19;100.00
818;BME280;391;51.052;6.954;2023-07-24T02:34:25;99780.84;;;18.20;100.00
818;BME280;391;51.052;6.954;2023-07-24T02:36:30;99780.84;;;18.19;100.00
818;BME280;391;51.052;6.954;2023-07-24T02:38:33;99793.19;;;18.18;100.00
818;BME280;391;51.052;6.954;2023-07-24T02:40:37;99783.53;;;18.16;100.00
818;BME280;391;51.052;6.954;2023-07-24T02:42:40;99792.44;;;18.12;100.00
818;BME280;391;51.052;6.954;2023-07-24T02:44:44;99788.88;;;18.14;100.00
818;BME280;391;51.052;6.954;2023-07-24T02:46:48;99796.91;;;18.07;100.00
818;BME280;391;51.052;6.954;2023-07-24T02:48:53;99788.25;;;17.97;100.00
818;BME280;391;51.052;6.954;2023-07-24T02:50:56;99790.00;;;18.00;100.00
818;BME280;391;51.052;6.954;2023-07-24T02:53:00;99788.25;;;17.98;100.00
818;BME280;391;51.052;6.954;2023-07-24T02:55:04;99782.13;;;17.96;100.00
818;BME280;391;51.052;6.954;2023-07-24T02:57:09;99782.09;;;17.98;100.00
818;BME280;391;51.052;6.954;2023-07-24T02:59:13;99769.84;;;17.94;100.00
818;BME280;391;51.052;6.954;2023-07-24T03:01:17;99747.81;;;17.98;100.00
818;BME280;391;51.052;6.954;2023-07-24T03:03:21;99765.41;;;17.97;100.00
818;BME280;391;51.052;6.954;2023-07-24T03:05:26;99754.84;;;17.99;100.00
818;BME280;391;51.052;6.954;2023-07-24T03:07:28;99754.84;;;17.99;100.00
818;BME280;391;51.052;6.954;2023-07-24T03:09:32;99763.63;;;17.98;100.00
818;BME280;391;51.052;6.954;2023-07-24T03:11:36;99765.41;;;17.97;100.00
818;BME280;391;51.052;6.954;2023-07-24T03:13:39;99756.53;;;18.02;100.00
818;BME280;391;51.052;6.954;2023-07-24T03:15:51;99763.63;;;18.00;100.00
818;BME280;391;51.052;6.954;2023-07-24T03:17:56;99758.31;;;18.01;100.00
818;BME280;391;51.052;6.954;2023-07-24T03:20:08;99761.81;;;18.02;100.00
818;BME280;391;51.052;6.954;2023-07-24T03:22:14;99746.88;;;18.02;100.00
818;BME280;391;51.052;6.954;2023-07-24T03:24:18;99748.63;;;18.02;100.00
818;BME280;391;51.052;6.954;2023-07-24T03:26:21;99747.75;;;18.01;100.00
818;BME280;391;51.052;6.954;2023-07-24T03:28:25;99727.75;;;17.89;100.00
818;BME280;391;51.052;6.954;2023-07-24T03:30:29;99750.44;;;18.00;100.00
818;BME280;391;51.052;6.954;2023-07-24T03:32:33;99745.09;;;18.03;100.00
818;BME280;391;51.052;6.954;2023-07-24T03:34:36;99748.63;;;18.02;100.00
818;BME280;391;51.052;6.954;2023-07-24T03:36:41;99748.63;;;18.02;100.00
818;BME280;391;51.052;6.954;2023-07-24T03:38:46;99742.47;;;18.03;100.00
818;BME280;391;51.052;6.954;2023-07-24T03:40:50;99742.53;;;18.00;100.00
818;BME280;391;51.052;6.954;2023-07-24T03:42:54;99735.50;;;17.98;100.00
818;BME280;391;51.052;6.954;2023-07-24T03:44:58;99732.88;;;17.97;100.00
818;BME280;391;51.052;6.954;2023-07-24T03:47:02;99730.16;;;18.02;100.00
818;BME280;391;51.052;6.954;2023-07-24T03:49:05;99731.16;;;17.96;100.00
818;BME280;391;51.052;6.954;2023-07-24T03:51:09;99740.84;;;17.95;100.00
818;BME280;391;51.052;6.954;2023-07-24T03:53:12;99730.28;;;17.95;100.00
818;BME280;391;51.052;6.954;2023-07-24T03:55:17;99734.63;;;17.96;100.00
818;BME280;391;51.052;6.954;2023-07-24T03:57:21;99732.97;;;17.92;100.00
818;BME280;391;51.052;6.954;2023-07-24T03:59:24;99728.47;;;17.99;100.00
818;BME280;391;51.052;6.954;2023-07-24T04:01:28;99734.56;;;18.03;100.00
818;BME280;391;51.052;6.954;2023-07-24T04:03:32;99728.47;;;17.99;100.00
818;BME280;391;51.052;6.954;2023-07-24T04:05:35;99733.69;;;18.01;100.00
818;BME280;391;51.052;6.954;2023-07-24T04:07:40;99729.28;;;18.01;100.00
818;BME280;391;51.052;6.954;2023-07-24T04:09:43;99727.47;;;18.05;100.00
818;BME280;391;51.052;6.954;2023-07-24T04:11:47;99717.84;;;18.02;100.00
818;BME280;391;51.052;6.954;2023-07-24T04:13:50;99725.53;;;18.14;100.00
818;BME280;391;51.052;6.954;2023-07-24T04:15:59;99726.38;;;18.16;100.00
818;BME280;391;51.052;6.954;2023-07-24T04:18:09;99717.59;;;18.16;100.00
818;BME280;391;51.052;6.954;2023-07-24T04:20:15;99715.75;;;18.21;100.00
818;BME280;391;51.052;6.954;2023-07-24T04:22:19;99716.69;;;18.17;100.00
818;BME280;391;51.052;6.954;2023-07-24T04:24:21;99720.16;;;18.19;100.00
818;BME280;391;51.052;6.954;2023-07-24T04:26:25;99724.56;;;18.20;100.00
818;BME280;391;51.052;6.954;2023-07-24T04:28:30;99720.03;;;18.26;100.00
818;BME280;391;51.052;6.954;2023-07-24T04:30:33;99720.09;;;18.23;100.00
818;BME280;391;51.052;6.954;2023-07-24T04:32:36;99728.00;;;18.25;100.00
818;BME280;391;51.052;6.954;2023-07-24T04:34:41;99731.41;;;18.30;100.00
818;BME280;391;51.052;6.954;2023-07-24T04:36:44;99723.44;;;18.33;100.00
818;BME280;391;51.052;6.954;2023-07-24T04:38:48;99728.72;;;18.33;100.00
818;BME280;391;51.052;6.954;2023-07-24T04:40:51;99725.19;;;18.32;100.00
818;BME280;391;51.052;6.954;2023-07-24T04:42:55;99725.13;;;18.35;100.00
818;BME280;391;51.052;6.954;2023-07-24T04:45:00;99729.47;;;18.38;100.00
818;BME280;391;51.052;6.954;2023-07-24T04:47:04;99725.13;;;18.35;100.00
818;BME280;391;51.052;6.954;2023-07-24T04:49:07;99726.06;;;18.34;100.00
818;BME280;391;51.052;6.954;2023-07-24T04:51:10;99733.09;;;18.34;100.00
818;BME280;391;51.052;6.954;2023-07-24T04:53:14;99739.22;;;18.36;100.00
818;BME280;391;51.052;6.954;2023-07-24T04:55:18;99738.31;;;18.37;100.00
818;BME280;391;51.052;6.954;2023-07-24T04:57:21;99742.66;;;18.41;100.00
818;BME280;391;51.052;6.954;2023-07-24T04:59:25;99738.31;;;18.37;100.00
818;BME280;391;51.052;6.954;2023-07-24T05:01:29;99740.84;;;18.41;100.00
818;BME280;391;51.052;6.954;2023-07-24T05:03:32;99743.53;;;18.40;100.00
818;BME280;391;51.052;6.954;2023-07-24T05:05:36;99738.19;;;18.43;100.00
818;BME280;391;51.052;6.954;2023-07-24T05:07:42;99740.72;;;18.47;100.00
818;BME280;391;51.052;6.954;2023-07-24T05:09:45;99740.78;;;18.44;100.00
818;BME280;391;51.052;6.954;2023-07-24T05:11:49;99751.28;;;18.47;100.00
818;BME280;391;51.052;6.954;2023-07-24T05:13:52;99743.41;;;18.46;100.00
818;BME280;391;51.052;6.954;2023-07-24T05:15:55;99758.38;;;18.45;100.00
818;BME280;391;51.052;6.954;2023-07-24T05:18:00;99759.09;;;18.55;100.00
818;BME280;391;51.052;6.954;2023-07-24T05:20:05;99750.38;;;18.53;100.00
818;BME280;391;51.052;6.954;2023-07-24T05:22:09;99765.22;;;18.59;100.00
818;BME280;391;51.052;6.954;2023-07-24T05:24:13;99761.69;;;18.60;100.00
818;BME280;391;51.052;6.954;2023-07-24T05:26:16;99766.91;;;18.61;100.00
818;BME280;391;51.052;6.954;2023-07-24T05:28:20;99759.84;;;18.63;100.00
818;BME280;391;51.052;6.954;2023-07-24T05:30:24;99753.75;;;18.60;100.00
818;BME280;391;51.052;6.954;2023-07-24T05:32:27;99750.19;;;18.61;100.00
818;BME280;391;51.052;6.954;2023-07-24T05:34:32;99758.06;;;18.64;100.00
818;BME280;391;51.052;6.954;2023-07-24T05:36:36;99766.84;;;18.66;100.00
818;BME280;391;51.052;6.954;2023-07-24T05:38:39;99770.31;;;18.68;100.00
818;BME280;391;51.052;6.954;2023-07-24T05:40:43;99770.22;;;18.72;100.00
818;BME280;391;51.052;6.954;2023-07-24T05:42:46;99769.28;;;18.75;100.00
818;BME280;391;51.052;6.954;2023-07-24T05:44:50;99764.72;;;18.83;100.00
818;BME280;391;51.052;6.954;2023-07-24T05:46:53;99758.53;;;18.84;100.00
818;BME280;391;51.052;6.954;2023-07-24T05:48:57;99781.34;;;18.88;100.00
818;BME280;391;51.052;6.954;2023-07-24T05:51:04;99774.25;;;18.91;100.00
818;BME280;391;51.052;6.954;2023-07-24T05:53:08;99768.91;;;18.93;100.00
818;BME280;391;51.052;6.954;2023-07-24T05:55:11;99779.38;;;18.97;100.00
818;BME280;391;51.052;6.954;2023-07-24T05:57:15;99781.06;;;19.01;100.00
818;BME280;391;51.052;6.954;2023-07-24T05:59:18;99789.75;;;19.07;100.00
818;BME280;391;51.052;6.954;2023-07-24T06:01:22;99795.81;;;19.12;99.97
818;BME280;391;51.052;6.954;2023-07-24T06:03:25;99795.78;;;19.13;99.10
818;BME280;391;51.052;6.954;2023-07-24T06:05:28;99801.88;;;19.17;99.28
818;BME280;391;51.052;6.954;2023-07-24T06:07:33;99786.03;;;19.17;98.62
818;BME280;391;51.052;6.954;2023-07-24T06:09:36;99788.53;;;19.23;98.05
818;BME280;391;51.052;6.954;2023-07-24T06:11:40;99789.28;;;19.28;97.31
818;BME280;391;51.052;6.954;2023-07-24T06:13:44;99785.78;;;19.27;97.52
818;BME280;391;51.052;6.954;2023-07-24T06:15:48;99797.97;;;19.34;96.86
818;BME280;391;51.052;6.954;2023-07-24T06:17:52;99795.22;;;19.39;97.54
818;BME280;391;51.052;6.954;2023-07-24T06:19:56;99794.16;;;19.49;96.20
818;BME280;391;51.052;6.954;2023-07-24T06:21:58;99790.56;;;19.51;96.40
818;BME280;391;51.052;6.954;2023-07-24T06:24:04;99788.88;;;19.49;96.12
818;BME280;391;51.052;6.954;2023-07-24T06:26:07;99790.66;;;19.47;96.63
818;BME280;391;51.052;6.954;2023-07-24T06:28:11;99795.88;;;19.50;95.91
818;BME280;391;51.052;6.954;2023-07-24T06:30:15;99797.53;;;19.56;95.75
818;BME280;391;51.052;6.954;2023-07-24T06:32:18;99808.78;;;19.65;94.88
818;BME280;391;51.052;6.954;2023-07-24T06:34:22;99796.13;;;19.78;93.77
818;BME280;391;51.052;6.954;2023-07-24T06:36:25;99798.06;;;19.71;93.96
818;BME280;391;51.052;6.954;2023-07-24T06:38:30;99791.00;;;19.72;92.85
818;BME280;391;51.052;6.954;2023-07-24T06:40:35;99792.91;;;19.65;92.80
818;BME280;391;51.052;6.954;2023-07-24T06:42:39;99775.31;;;19.63;93.39
818;BME280;391;51.052;6.954;2023-07-24T06:44:42;99787.47;;;19.71;92.77
818;BME280;391;51.052;6.954;2023-07-24T06:46:46;99785.94;;;19.61;93.10
818;BME280;391;51.052;6.954;2023-07-24T06:48:51;99784.19;;;19.60;92.55
818;BME280;391;51.052;6.954;2023-07-24T06:50:54;99787.78;;;19.59;92.68
818;BME280;391;51.052;6.954;2023-07-24T06:52:58;99792.13;;;19.60;93.14
818;BME280;391;51.052;6.954;2023-07-24T06:55:02;99786.84;;;19.60;92.74
818;BME280;391;51.052;6.954;2023-07-24T06:57:07;99793.00;;;19.62;91.98
818;BME280;391;51.052;6.954;2023-07-24T06:59:10;99791.25;;;19.60;92.39
818;BME280;391;51.052;6.954;2023-07-24T07:01:15;99779.78;;;19.61;91.98
818;BME280;391;51.052;6.954;2023-07-24T07:03:18;99784.13;;;19.63;92.15
818;BME280;391;51.052;6.954;2023-07-24T07:05:21;99781.38;;;19.68;91.85
818;BME280;391;51.052;6.954;2023-07-24T07:07:25;99778.50;;;19.77;90.80
818;BME280;391;51.052;6.954;2023-07-24T07:09:29;99786.38;;;19.80;90.54
818;BME280;391;51.052;6.954;2023-07-24T07:11:32;99788.06;;;19.82;89.56
818;BME280;391;51.052;6.954;2023-07-24T07:13:37;99780.84;;;19.90;88.87
818;BME280;391;51.052;6.954;2023-07-24T07:15:41;99769.56;;;19.82;88.07
818;BME280;391;51.052;6.954;2023-07-24T07:17:45;99771.25;;;19.85;88.76
818;BME280;391;51.052;6.954;2023-07-24T07:19:48;99781.88;;;19.83;88.35
818;BME280;391;51.052;6.954;2023-07-24T07:21:51;99781.72;;;19.89;87.35
818;BME280;391;51.052;6.954;2023-07-24T07:23:55;99791.41;;;19.90;87.37
818;BME280;391;51.052;6.954;2023-07-24T07:25:59;99787.78;;;19.94;86.68
818;BME280;391;51.052;6.954;2023-07-24T07:28:04;99786.94;;;19.92;87.77
818;BME280;391;51.052;6.954;2023-07-24T07:30:09;99784.28;;;19.94;87.20
818;BME280;391;51.052;6.954;2023-07-24T07:32:13;99782.47;;;19.96;86.93
818;BME280;391;51.052;6.954;2023-07-24T07:34:17;99788.53;;;19.99;84.89
818;BME280;391;51.052;6.954;2023-07-24T07:36:20;99788.66;;;19.95;84.92
818;BME280;391;51.052;6.954;2023-07-24T07:38:25;99779.91;;;19.91;84.25
818;BME280;391;51.052;6.954;2023-07-24T07:40:28;99788.66;;;19.95;84.16
818;BME280;391;51.052;6.954;2023-07-24T07:42:32;99776.97;;;20.03;82.86
818;BME280;391;51.052;6.954;2023-07-24T07:44:35;99779.56;;;20.06;82.30
818;BME280;391;51.052;6.954;2023-07-24T07:46:40;99778.38;;;20.17;82.03
818;BME280;391;51.052;6.954;2023-07-24T07:48:44;99763.28;;;20.20;81.90
818;BME280;391;51.052;6.954;2023-07-24T07:50:50;99770.13;;;20.30;81.91
818;BME280;391;51.052;6.954;2023-07-24T07:52:53;99760.56;;;20.23;81.87
818;BME280;391;51.052;6.954;2023-07-24T07:54:57;99762.00;;;20.38;81.07
818;BME280;391;51.052;6.954;2023-07-24T07:57:04;99759.22;;;20.42;82.06
818;BME280;391;51.052;6.954;2023-07-24T07:59:07;99755.63;;;20.45;81.55
818;BME280;391;51.052;6.954;2023-07-24T08:01:11;99765.03;;;20.55;82.04
818;BME280;391;51.052;6.954;2023-07-24T08:03:17;99773.06;;;20.52;80.84
818;BME280;391;51.052;6.954;2023-07-24T08:05:20;99755.72;;;20.42;81.97
818;BME280;391;51.052;6.954;2023-07-24T08:07:24;99745.94;;;20.44;81.44
818;BME280;391;51.052;6.954;2023-07-24T08:09:28;99743.63;;;20.32;81.26
818;BME280;391;51.052;6.954;2023-07-24T08:11:31;99754.13;;;20.35;81.08
818;BME280;391;51.052;6.954;2023-07-24T08:13:34;99753.16;;;20.39;81.64
818;BME280;391;51.052;6.954;2023-07-24T08:15:38;99747.78;;;20.42;80.64
818;BME280;391;51.052;6.954;2023-07-24T08:17:40;99750.69;;;20.31;81.14
818;BME280;391;51.052;6.954;2023-07-24T08:19:45;99760.75;;;20.51;82.68
818;BME280;391;51.052;6.954;2023-07-24T08:21:49;99759.00;;;20.50;81.45
818;BME280;391;51.052;6.954;2023-07-24T08:23:52;99757.16;;;20.53;81.71
818;BME280;391;51.052;6.954;2023-07-24T08:25:56;99756.19;;;20.56;80.39
818;BME280;391;51.052;6.954;2023-07-24T08:27:59;99752.81;;;20.51;80.30
818;BME280;391;51.052;6.954;2023-07-24T08:30:07;99753.81;;;20.47;81.96
818;BME280;391;51.052;6.954;2023-07-24T08:32:11;99774.09;;;20.48;81.11
818;BME280;391;51.052;6.954;2023-07-24T08:34:15;99755.75;;;20.40;80.79
818;BME280;391;51.052;6.954;2023-07-24T08:36:20;99755.66;;;20.43;81.50
818;BME280;391;51.052;6.954;2023-07-24T08:38:23;99758.13;;;20.51;81.24
818;BME280;391;51.052;6.954;2023-07-24T08:40:27;99747.63;;;20.46;80.43
818;BME280;391;51.052;6.954;2023-07-24T08:42:31;99749.50;;;20.43;81.06
818;BME280;391;51.052;6.954;2023-07-24T08:44:34;99738.97;;;20.40;81.22
818;BME280;391;51.052;6.954;2023-07-24T08:46:38;99704.94;;;20.25;81.34
818;BME280;391;51.052;6.954;2023-07-24T08:48:44;99723.44;;;20.28;80.68
818;BME280;391;51.052;6.954;2023-07-24T08:50:47;99741.63;;;20.40;81.41
818;BME280;391;51.052;6.954;2023-07-24T08:52:54;99718.66;;;20.40;81.38
818;BME280;391;51.052;6.954;2023-07-24T08:55:01;99703.91;;;20.32;80.57
818;BME280;391;51.052;6.954;2023-07-24T08:57:06;99727.13;;;20.54;80.93
818;BME280;391;51.052;6.954;2023-07-24T08:59:10;99729.06;;;20.48;80.48
818;BME280;391;51.052;6.954;2023-07-24T09:01:14;99648.91;;;20.09;80.73
818;BME280;391;51.052;6.954;2023-07-24T09:03:17;99720.97;;;20.52;80.93
818;BME280;391;51.052;6.954;2023-07-24T09:05:22;99721.94;;;20.50;80.95
818;BME280;391;51.052;6.954;2023-07-24T09:07:25;99729.94;;;20.48;80.66
818;BME280;391;51.052;6.954;2023-07-24T09:09:30;99730.88;;;20.46;80.83
818;BME280;391;51.052;6.954;2023-07-24T09:11:45;99742.38;;;20.45;81.03
818;BME280;391;51.052;6.954;2023-07-24T09:13:49;99746.94;;;20.40;82.55
818;BME280;391;51.052;6.954;2023-07-24T09:15:56;99749.91;;;20.28;83.17
818;BME280;391;51.052;6.954;2023-07-24T09:17:59;99736.59;;;20.31;84.42
818;BME280;391;51.052;6.954;2023-07-24T09:20:03;99731.38;;;20.28;83.99
818;BME280;391;51.052;6.954;2023-07-24T09:22:10;99738.16;;;20.38;82.77
818;BME280;391;51.052;6.954;2023-07-24T09:24:15;99749.50;;;20.43;81.69
818;BME280;391;51.052;6.954;2023-07-24T09:26:20;99736.25;;;20.43;81.60
818;BME280;391;51.052;6.954;2023-07-24T09:28:25;99739.66;;;20.48;81.24
818;BME280;391;51.052;6.954;2023-07-24T09:30:28;99735.28;;;20.45;81.81
818;BME280;391;51.052;6.954;2023-07-24T09:32:31;99680.22;;;20.26;80.91
818;BME280;391;51.052;6.954;2023-07-24T09:34:41;99736.59;;;20.62;80.01
818;BME280;391;51.052;6.954;2023-07-24T09:36:45;99714.81;;;20.52;79.79
818;BME280;391;51.052;6.954;2023-07-24T09:38:48;99725.97;;;20.63;79.70
818;BME280;391;51.052;6.954;2023-07-24T09:40:52;99706.53;;;20.64;79.41
818;BME280;391;51.052;6.954;2023-07-24T09:42:59;99698.41;;;20.70;79.60
818;BME280;391;51.052;6.954;2023-07-24T09:45:12;99700.72;;;20.81;79.56
818;BME280;391;51.052;6.954;2023-07-24T09:47:16;99697.94;;;20.85;78.43
818;BME280;391;51.052;6.954;2023-07-24T09:49:22;99686.53;;;20.83;79.03
818;BME280;391;51.052;6.954;2023-07-24T09:51:29;99676.94;;;20.79;78.57
818;BME280;391;51.052;6.954;2023-07-24T09:53:39;99686.44;;;20.86;78.35
818;BME280;391;51.052;6.954;2023-07-24T09:55:47;99679.22;;;20.91;78.83
818;BME280;391;51.052;6.954;2023-07-24T09:57:53;99649.84;;;20.70;79.62
818;BME280;391;51.052;6.954;2023-07-24T09:59:58;99672.81;;;20.98;78.67
818;BME280;391;51.052;6.954;2023-07-24T10:02:08;99670.41;;;20.91;79.02
818;BME280;391;51.052;6.954;2023-07-24T10:04:15;99662.53;;;20.88;78.52
818;BME280;391;51.052;6.954;2023-07-24T10:06:18;99668.44;;;20.97;78.66
818;BME280;391;51.052;6.954;2023-07-24T10:08:23;99670.97;;;21.00;78.86
818;BME280;391;51.052;6.954;2023-07-24T10:10:28;99664.00;;;20.98;76.89
818;BME280;391;51.052;6.954;2023-07-24T10:12:34;99664.13;;;20.93;77.02
818;BME280;391;51.052;6.954;2023-07-24T10:14:38;99668.53;;;20.94;76.97
818;BME280;391;51.052;6.954;2023-07-24T10:16:44;99666.88;;;20.90;77.72
818;BME280;391;51.052;6.954;2023-07-24T10:18:48;99657.91;;;20.94;78.21
818;BME280;391;51.052;6.954;2023-07-24T10:21:00;99660.53;;;20.96;78.00
818;BME280;391;51.052;6.954;2023-07-24T10:23:05;99659.47;;;21.01;77.50
818;BME280;391;51.052;6.954;2023-07-24T10:25:09;99661.06;;;21.07;77.25
818;BME280;391;51.052;6.954;2023-07-24T10:27:14;99651.31;;;21.09;76.73
818;BME280;391;51.052;6.954;2023-07-24T10:29:18;99658.38;;;21.08;76.11
818;BME280;391;51.052;6.954;2023-07-24T10:31:23;99646.78;;;21.13;76.48
818;BME280;391;51.052;6.954;2023-07-24T10:33:31;99637.38;;;21.30;75.37
818;BME280;391;51.052;6.954;2023-07-24T10:35:39;99641.81;;;21.56;75.34
818;BME280;391;51.052;6.954;2023-07-24T10:37:42;99639.78;;;21.90;74.04
818;BME280;391;51.052;6.954;2023-07-24T10:39:45;99628.69;;;22.04;73.10
818;BME280;391;51.052;6.954;2023-07-24T10:41:49;99633.59;;;22.39;73.51
818;BME280;391;51.052;6.954;2023-07-24T10:43:59;99638.03;;;22.39;71.59
818;BME280;391;51.052;6.954;2023-07-24T10:46:02;99636.97;;;22.20;72.81
818;BME280;391;51.052;6.954;2023-07-24T10:48:06;99644.22;;;22.14;72.37
818;BME280;391;51.052;6.954;2023-07-24T10:50:15;99639.47;;;21.99;73.10
818;BME280;391;51.052;6.954;2023-07-24T10:52:27;99633.91;;;21.81;72.99
818;BME280;391;51.052;6.954;2023-07-24T10:54:31;99569.78;;;21.68;73.33
818;BME280;391;51.052;6.954;2023-07-24T10:56:36;99612.97;;;21.98;74.17
818;BME280;391;51.052;6.954;2023-07-24T10:58:40;99618.09;;;22.02;73.45
818;BME280;391;51.052;6.954;2023-07-24T11:00:44;99611.19;;;21.98;73.24
818;BME280;391;51.052;6.954;2023-07-24T11:02:49;99607.13;;;21.87;72.68
818;BME280;391;51.052;6.954;2023-07-24T11:04:52;99602.03;;;21.81;73.39
818;BME280;391;51.052;6.954;2023-07-24T11:06:57;99592.31;;;21.81;74.49
818;BME280;391;51.052;6.954;2023-07-24T11:09:01;99598.13;;;21.92;72.49
818;BME280;391;51.052;6.954;2023-07-24T11:11:04;99598.41;;;21.83;72.63
818;BME280;391;51.052;6.954;2023-07-24T11:13:10;99595.72;;;21.85;73.04
818;BME280;391;51.052;6.954;2023-07-24T11:15:13;99600.66;;;21.95;73.14
818;BME280;391;51.052;6.954;2023-07-24T11:17:17;99590.28;;;22.14;73.24
818;BME280;391;51.052;6.954;2023-07-24T11:19:24;99580.50;;;22.14;72.88
818;BME280;391;51.052;6.954;2023-07-24T11:21:28;99574.00;;;22.23;73.19
818;BME280;391;51.052;6.954;2023-07-24T11:23:35;99579.56;;;22.15;73.52
818;BME280;391;51.052;6.954;2023-07-24T11:25:39;99536.34;;;21.87;74.12
818;BME280;391;51.052;6.954;2023-07-24T11:27:43;99560.97;;;21.92;74.91
818;BME280;391;51.052;6.954;2023-07-24T11:29:47;99581.63;;;21.83;75.11
818;BME280;391;51.052;6.954;2023-07-24T11:31:53;99566.00;;;21.75;75.79